createdAt,value
2023-01-19T00:02:35.192Z,99126.55
2023-01-19T00:07:36.761Z,99136.16
2023-01-19T00:12:38.383Z,99138.89
2023-01-19T00:17:41.170Z,99150.98
2023-01-19T00:22:42.759Z,99164.55
2023-01-19T00:27:49.365Z,99165.03
2023-01-19T00:32:51.237Z,99170.02
2023-01-19T00:37:52.902Z,99184.15
2023-01-19T00:42:54.904Z,99181.67
2023-01-19T00:47:59.067Z,99185.92
2023-01-19T00:53:01.937Z,99184.59
2023-01-19T00:58:03.813Z,99178.70
2023-01-19T01:03:05.590Z,99170.73
2023-01-19T01:08:07.196Z,99166.01
2023-01-19T01:13:21.739Z,99165.41
2023-01-19T01:18:26.439Z,99166.41
2023-01-19T01:23:27.943Z,99168.48
2023-01-19T01:28:29.464Z,99170.34
2023-01-19T01:33:39.813Z,99165.06
2023-01-19T01:38:43.527Z,99168.87
2023-01-19T01:43:51.559Z,99175.12
2023-01-19T01:49:11.145Z,99177.65
2023-01-19T01:54:26.025Z,99177.31
2023-01-19T01:59:41.534Z,99177.41
2023-01-19T02:04:53.955Z,99165.74
2023-01-19T02:10:13.841Z,99161.17
2023-01-19T02:15:20.185Z,99160.47
2023-01-19T02:20:26.619Z,99151.69
2023-01-19T02:25:28.182Z,99145.96
2023-01-19T02:30:30.785Z,99149.21
2023-01-19T02:35:32.672Z,99156.84
2023-01-19T02:40:35.115Z,99158.95
2023-01-19T02:45:38.043Z,99152.81
2023-01-19T02:50:50.654Z,99149.80
2023-01-19T02:56:23.369Z,99148.77
2023-01-19T03:01:38.620Z,99155.27
2023-01-19T03:06:54.663Z,99160.09
2023-01-19T03:12:12.200Z,99162.23
2023-01-19T03:17:17.660Z,99165.58
2023-01-19T03:22:27.121Z,99172.77
2023-01-19T03:27:33.500Z,99179.55
2023-01-19T03:32:41.323Z,99182.92
2023-01-19T03:37:45.525Z,99190.95
2023-01-19T03:42:49.114Z,99197.38
2023-01-19T03:47:51.568Z,99198.55
2023-01-19T03:53:13.340Z,99199.98
2023-01-19T03:58:14.934Z,99203.41
2023-01-19T04:03:17.995Z,99206.55
2023-01-19T04:08:19.487Z,99222.34
2023-01-19T04:13:20.964Z,99231.89
2023-01-19T04:18:22.444Z,99228.36
2023-01-19T04:23:24.127Z,99236.20
2023-01-19T04:28:26.745Z,99247.80
2023-01-19T04:33:28.747Z,99252.14
2023-01-19T04:38:30.282Z,99251.70
2023-01-19T04:43:31.800Z,99260.41
2023-01-19T04:48:33.475Z,99265.10
2023-01-19T04:53:35.592Z,99271.73
2023-01-19T04:58:37.098Z,99277.39
2023-01-19T05:03:38.673Z,99273.13
2023-01-19T05:08:40.346Z,99285.59
2023-01-19T05:13:42.065Z,99295.01
2023-01-19T05:18:43.527Z,99300.24
2023-01-19T05:23:45.128Z,99297.56
2023-01-19T05:28:46.611Z,99284.05
2023-01-19T05:33:49.072Z,99295.71
2023-01-19T05:38:50.562Z,99299.25
2023-01-19T05:43:52.046Z,99296.41
2023-01-19T05:48:53.748Z,99292.43
2023-01-19T05:53:55.213Z,99294.01
2023-01-19T05:58:56.722Z,99295.08
2023-01-19T06:03:58.225Z,99296.02
2023-01-19T06:08:59.756Z,99302.64
2023-01-19T06:14:02.029Z,99322.26
2023-01-19T06:19:03.985Z,99344.98
2023-01-19T06:24:06.155Z,99363.88
2023-01-19T06:29:09.711Z,99376.33
2023-01-19T06:34:11.559Z,99386.23
2023-01-19T06:39:13.271Z,99388.96
2023-01-19T06:44:15.228Z,99377.14
2023-01-19T06:49:16.714Z,99379.63
2023-01-19T06:54:18.205Z,99376.23
2023-01-19T06:59:19.834Z,99373.04
2023-01-19T07:04:21.474Z,99363.91
2023-01-19T07:09:24.905Z,99357.95
2023-01-19T07:14:31.056Z,99357.45
2023-01-19T07:19:34.940Z,99370.58
2023-01-19T07:24:38.264Z,99379.39
2023-01-19T07:29:39.947Z,99377.69
2023-01-19T07:34:41.663Z,99378.81
2023-01-19T07:39:43.153Z,99377.25
2023-01-19T07:44:44.636Z,99378.97
2023-01-19T07:49:46.452Z,99390.02
2023-01-19T07:54:50.925Z,99401.91
2023-01-19T07:59:53.008Z,99403.09
2023-01-19T08:04:55.315Z,99398.96
2023-01-19T08:09:56.896Z,99397.58
2023-01-19T08:14:58.384Z,99390.52
2023-01-19T08:19:59.891Z,99388.43
2023-01-19T08:25:01.435Z,99389.45
2023-01-19T08:30:02.974Z,99400.02
2023-01-19T08:35:06.197Z,99410.41
2023-01-19T08:40:08.870Z,99407.91
2023-01-19T08:45:11.386Z,99412.20
2023-01-19T08:50:13.282Z,99418.16
2023-01-19T08:55:14.781Z,99430.73
2023-01-19T09:00:17.312Z,99428.48
2023-01-19T09:05:19.273Z,99427.88
2023-01-19T09:10:20.775Z,99419.91
2023-01-19T09:15:22.256Z,99418.77
2023-01-19T09:20:23.845Z,99436.30
2023-01-19T09:25:25.654Z,99433.89
2023-01-19T09:30:27.882Z,99439.35
2023-01-19T09:35:31.496Z,99448.19
2023-01-19T09:40:33.986Z,99442.09
2023-01-19T09:45:37.460Z,99448.63
2023-01-19T09:50:46.707Z,99450.64
2023-01-19T09:55:48.221Z,99447.98
2023-01-19T10:01:06.585Z,99439.42
2023-01-19T10:06:11.796Z,99434.70
2023-01-19T10:11:59.512Z,99421.93
2023-01-19T10:17:15.655Z,99404.77
2023-01-19T10:22:21.728Z,99392.20
2023-01-19T10:27:34.346Z,99381.23
2023-01-19T10:32:36.865Z,99376.48
2023-01-19T10:37:39.421Z,99379.06
2023-01-19T10:42:42.145Z,99384.44
2023-01-19T10:47:45.210Z,99386.23
2023-01-19T10:52:50.918Z,99387.06
2023-01-19T10:57:53.653Z,99378.27
2023-01-19T11:02:55.556Z,99374.42
2023-01-19T11:07:57.700Z,99375.67
2023-01-19T11:13:02.012Z,99371.39
2023-01-19T11:18:05.914Z,99367.17
2023-01-19T11:23:26.031Z,99366.71
2023-01-19T11:28:44.188Z,99368.89
2023-01-19T11:33:54.131Z,99372.55
2023-01-19T11:39:02.674Z,99369.84
2023-01-19T11:44:19.671Z,99362.92
2023-01-19T11:49:52.236Z,99355.80
2023-01-19T11:55:13.148Z,99352.02
2023-01-19T12:00:29.354Z,99356.27
2023-01-19T12:05:34.205Z,99359.30
2023-01-19T12:10:41.820Z,99358.45
2023-01-19T12:15:44.543Z,99358.17
2023-01-19T12:20:51.499Z,99353.03
2023-01-19T12:26:03.965Z,99338.70
2023-01-19T12:31:06.056Z,99344.68
2023-01-19T12:36:16.483Z,99351.48
2023-01-19T12:41:31.894Z,99355.30
2023-01-19T12:46:33.496Z,99351.89
2023-01-19T12:51:35.416Z,99350.21
2023-01-19T12:56:38.610Z,99343.23
2023-01-19T13:01:40.193Z,99337.89
2023-01-19T13:06:48.129Z,99330.60
2023-01-19T13:12:25.704Z,99335.14
2023-01-19T13:17:43.787Z,99340.23
2023-01-19T13:22:50.966Z,99336.86
2023-01-19T13:27:52.740Z,99345.92
2023-01-19T13:32:57.649Z,99343.15
2023-01-19T13:38:00.512Z,99343.78
2023-01-19T13:43:03.149Z,99346.86
2023-01-19T13:48:08.148Z,99355.43
2023-01-19T13:53:20.910Z,99354.48
2023-01-19T13:58:26.683Z,99354.95
2023-01-19T14:03:28.175Z,99354.72
2023-01-19T14:08:31.327Z,99351.88
2023-01-19T14:13:37.419Z,99349.88
2023-01-19T14:18:39.447Z,99350.10
2023-01-19T14:24:07.643Z,99352.95
2023-01-19T14:29:48.774Z,99356.73
2023-01-19T14:35:04.647Z,99361.55
2023-01-19T14:40:13.530Z,99361.73
2023-01-19T14:45:36.945Z,99359.25
2023-01-19T14:50:42.796Z,99359.61
2023-01-19T14:55:58.787Z,99364.65
2023-01-19T15:01:02.525Z,99376.33
2023-01-19T15:06:06.122Z,99380.55
2023-01-19T15:11:36.544Z,99381.56
2023-01-19T15:16:38.749Z,99380.58
2023-01-19T15:21:42.892Z,99380.20
2023-01-19T15:26:45.827Z,99382.56
2023-01-19T15:31:49.005Z,99378.98
2023-01-19T15:36:53.234Z,99388.20
2023-01-19T15:41:55.828Z,99392.98
2023-01-19T15:46:57.584Z,99390.40
2023-01-19T15:51:59.125Z,99385.30
2023-01-19T15:57:00.656Z,99380.93
2023-01-19T16:02:02.643Z,99387.77
2023-01-19T16:07:04.441Z,99391.75
2023-01-19T16:12:06.726Z,99391.54
2023-01-19T16:17:08.875Z,99393.01
2023-01-19T16:22:13.366Z,99395.75
2023-01-19T16:27:15.131Z,99400.86
2023-01-19T16:32:17.720Z,99403.60
2023-01-19T16:37:19.190Z,99411.73
2023-01-19T16:42:20.780Z,99414.61
2023-01-19T16:47:22.456Z,99408.38
2023-01-19T16:52:24.051Z,99409.44
2023-01-19T16:57:25.730Z,99415.77
2023-01-19T17:02:27.265Z,99410.18
2023-01-19T17:07:28.768Z,99400.31
2023-01-19T17:12:32.233Z,99402.59
2023-01-19T17:17:36.311Z,99392.64
2023-01-19T17:22:37.798Z,99387.41
2023-01-19T17:27:39.283Z,99383.82
2023-01-19T17:32:42.653Z,99377.55
2023-01-19T17:37:44.177Z,99383.67
2023-01-19T17:42:45.656Z,99397.76
2023-01-19T17:47:50.734Z,99396.05
2023-01-19T17:52:52.777Z,99398.09
2023-01-19T17:57:54.265Z,99396.96
2023-01-19T18:02:56.127Z,99390.56
2023-01-19T18:08:00.204Z,99390.20
2023-01-19T18:13:01.700Z,99391.66
2023-01-19T18:18:03.833Z,99391.67
2023-01-19T18:23:06.485Z,99396.64
2023-01-19T18:28:08.016Z,99392.64
2023-01-19T18:33:09.590Z,99392.98
2023-01-19T18:38:11.107Z,99394.83
2023-01-19T18:43:13.136Z,99393.66
2023-01-19T18:48:16.760Z,99396.23
2023-01-19T18:53:19.506Z,99396.06
2023-01-19T18:58:21.247Z,99400.70
2023-01-19T19:03:23.321Z,99406.14
2023-01-19T19:08:24.820Z,99406.15
2023-01-19T19:13:26.342Z,99400.13
2023-01-19T19:18:27.821Z,99398.48
2023-01-19T19:23:29.377Z,99402.02
2023-01-19T19:28:31.432Z,99409.46
2023-01-19T19:33:33.367Z,99420.70
2023-01-19T19:38:36.797Z,99422.11
2023-01-19T19:43:39.293Z,99424.66
2023-01-19T19:48:41.365Z,99429.19
2023-01-19T19:53:43.200Z,99427.83
2023-01-19T19:58:44.677Z,99428.21
2023-01-19T20:03:46.431Z,99436.70
2023-01-19T20:08:52.335Z,99440.30
2023-01-19T20:13:54.147Z,99443.52
2023-01-19T20:18:55.705Z,99453.34
2023-01-19T20:24:01.052Z,99455.38
2023-01-19T20:29:07.623Z,99461.83
2023-01-19T20:34:12.030Z,99465.58
2023-01-19T20:39:13.423Z,99467.98
2023-01-19T20:44:23.914Z,99468.63
2023-01-19T20:49:25.460Z,99468.27
2023-01-19T20:54:30.126Z,99469.64
2023-01-19T20:59:34.230Z,99474.93
2023-01-19T21:04:35.746Z,99470.70
2023-01-19T21:09:39.149Z,99471.02
2023-01-19T21:14:42.448Z,99477.77
2023-01-19T21:19:44.108Z,99496.23
2023-01-19T21:24:46.809Z,99507.89
2023-01-19T21:29:48.559Z,99514.16
2023-01-19T21:34:50.208Z,99525.02
2023-01-19T21:39:51.678Z,99533.97
2023-01-19T21:44:53.169Z,99542.91
2023-01-19T21:49:54.953Z,99549.35
2023-01-19T21:54:56.486Z,99549.52
2023-01-19T21:59:57.985Z,99556.50
2023-01-19T22:04:59.553Z,99559.75
2023-01-19T22:10:01.150Z,99551.92
2023-01-19T22:15:02.786Z,99549.73
2023-01-19T22:20:05.270Z,99553.47
2023-01-19T22:25:07.053Z,99560.45
2023-01-19T22:30:09.608Z,99565.90
2023-01-19T22:35:11.436Z,99572.17
2023-01-19T22:40:13.697Z,99574.52
2023-01-19T22:45:15.615Z,99572.98
2023-01-19T22:50:17.450Z,99584.01
2023-01-19T22:55:18.956Z,99601.98
2023-01-19T23:00:21.698Z,99613.02
2023-01-19T23:05:23.285Z,99616.42
2023-01-19T23:10:24.938Z,99619.64
2023-01-19T23:15:26.447Z,99620.80
2023-01-19T23:20:27.931Z,99617.75
2023-01-19T23:25:31.492Z,99620.32
2023-01-19T23:30:33.046Z,99622.02
2023-01-19T23:35:35.751Z,99629.17
2023-01-19T23:40:38.616Z,99632.71
2023-01-19T23:45:40.231Z,99648.14
2023-01-19T23:50:41.743Z,99665.95
2023-01-19T23:55:43.225Z,99670.87
